sensor_id;sensor_type;location;lat;lon;timestamp;pressure;altitude;pressure_sealevel;temperature;humidity
35507;BME280;36461;52.018;21.036;2024-01-15T00:01:01;98184.23;;;1.33;95.97
35507;BME280;36461;52.018;21.036;2024-01-15T00:03:49;98180.14;;;1.39;96.04
35507;BME280;36461;52.018;21.036;2024-01-15T00:06:17;98180.22;;;1.42;96.48
35507;BME280;36461;52.018;21.036;2024-01-15T00:08:46;98177.84;;;1.42;96.24
35507;BME280;36461;52.018;21.036;2024-01-15T00:11:14;98168.55;;;1.39;95.94
35507;BME280;36461;52.018;21.036;2024-01-15T00:13:43;98164.16;;;1.38;95.99
35507;BME280;36461;52.018;21.036;2024-01-15T00:16:11;98155.61;;;1.39;96.05
35507;BME280;36461;52.018;21.036;2024-01-15T00:18:40;98151.98;;;1.35;95.66
35507;BME280;36461;52.018;21.036;2024-01-15T00:21:08;98148.02;;;1.36;96.03
35507;BME280;36461;52.018;21.036;2024-01-15T00:23:36;98144.46;;;1.35;95.67
35507;BME280;36461;52.018;21.036;2024-01-15T00:26:05;98143.47;;;1.34;95.37
35507;BME280;36461;52.018;21.036;2024-01-15T00:28:37;98137.52;;;1.34;95.56
35507;BME280;36461;52.018;21.036;2024-01-15T00:31:06;98132.52;;;1.36;95.62
35507;BME280;36461;52.018;21.036;2024-01-15T00:33:35;98127.29;;;1.34;95.20
35507;BME280;36461;52.018;21.036;2024-01-15T00:36:04;98125.61;;;1.34;95.35
35507;BME280;36461;52.018;21.036;2024-01-15T00:38:32;98119.95;;;1.34;95.29
35507;BME280;36461;52.018;21.036;2024-01-15T00:41:01;98116.33;;;1.36;94.82
35507;BME280;36461;52.018;21.036;2024-01-15T00:43:29;98111.55;;;1.36;94.28
35507;BME280;36461;52.018;21.036;2024-01-15T00:45:57;98110.35;;;1.37;94.27
35507;BME280;36461;52.018;21.036;2024-01-15T00:48:26;98105.73;;;1.37;93.87
35507;BME280;36461;52.018;21.036;2024-01-15T00:50:54;98103.77;;;1.39;93.92
35507;BME280;36461;52.018;21.036;2024-01-15T00:53:22;98099.17;;;1.40;93.51
35507;BME280;36461;52.018;21.036;2024-01-15T00:55:50;98091.62;;;1.41;93.54
35507;BME280;36461;52.018;21.036;2024-01-15T00:58:19;98091.61;;;1.42;93.61
35507;BME280;36461;52.018;21.036;2024-01-15T01:00:47;98084.58;;;1.27;94.73
35507;BME280;36461;52.018;21.036;2024-01-15T01:03:15;98082.39;;;1.20;94.80
35507;BME280;36461;52.018;21.036;2024-01-15T01:05:45;98077.29;;;1.15;94.93
35507;BME280;36461;52.018;21.036;2024-01-15T01:08:13;98074.16;;;1.17;95.20
35507;BME280;36461;52.018;21.036;2024-01-15T01:10:41;98071.86;;;1.20;95.40
35507;BME280;36461;52.018;21.036;2024-01-15T01:13:10;98066.50;;;1.16;95.62
35507;BME280;36461;52.018;21.036;2024-01-15T01:15:38;98068.21;;;1.16;95.77
35507;BME280;36461;52.018;21.036;2024-01-15T01:18:07;98061.87;;;1.17;96.02
35507;BME280;36461;52.018;21.036;2024-01-15T01:20:35;98060.73;;;1.10;95.62
35507;BME280;36461;52.018;21.036;2024-01-15T01:23:04;98058.89;;;1.04;95.76
35507;BME280;36461;52.018;21.036;2024-01-15T01:25:33;98056.16;;;0.98;95.90
35507;BME280;36461;52.018;21.036;2024-01-15T01:28:01;98057.45;;;1.01;96.15
35507;BME280;36461;52.018;21.036;2024-01-15T01:30:29;98054.83;;;1.03;96.46
35507;BME280;36461;52.018;21.036;2024-01-15T01:32:57;98050.91;;;1.03;96.31
35507;BME280;36461;52.018;21.036;2024-01-15T01:35:25;98049.52;;;1.04;96.26
35507;BME280;36461;52.018;21.036;2024-01-15T01:37:53;98043.41;;;1.03;96.12
35507;BME280;36461;52.018;21.036;2024-01-15T01:40:22;98039.16;;;1.03;95.90
35507;BME280;36461;52.018;21.036;2024-01-15T01:42:50;98037.90;;;0.99;95.94
35507;BME280;36461;52.018;21.036;2024-01-15T01:45:20;98035.16;;;0.95;95.74
35507;BME280;36461;52.018;21.036;2024-01-15T01:47:48;98037.98;;;0.92;96.05
35507;BME280;36461;52.018;21.036;2024-01-15T01:50:17;98037.21;;;0.94;96.15
35507;BME280;36461;52.018;21.036;2024-01-15T01:52:45;98034.20;;;0.98;95.99
35507;BME280;36461;52.018;21.036;2024-01-15T01:55:14;98026.48;;;1.00;95.89
35507;BME280;36461;52.018;21.036;2024-01-15T01:57:42;98024.14;;;1.04;96.05
35507;BME280;36461;52.018;21.036;2024-01-15T02:00:11;98017.68;;;1.09;95.67
35507;BME280;36461;52.018;21.036;2024-01-15T02:02:40;98011.81;;;1.11;95.68
35507;BME280;36461;52.018;21.036;2024-01-15T02:05:09;98012.66;;;1.11;95.65
35507;BME280;36461;52.018;21.036;2024-01-15T02:07:38;98014.50;;;1.07;95.36
35507;BME280;36461;52.018;21.036;2024-01-15T02:10:06;98007.23;;;1.05;95.42
35507;BME280;36461;52.018;21.036;2024-01-15T02:12:34;98006.55;;;1.06;95.23
35507;BME280;36461;52.018;21.036;2024-01-15T02:15:03;98000.80;;;1.04;95.28
35507;BME280;36461;52.018;21.036;2024-01-15T02:17:31;97994.84;;;1.04;94.97
35507;BME280;36461;52.018;21.036;2024-01-15T02:19:59;97995.23;;;1.08;94.76
35507;BME280;36461;52.018;21.036;2024-01-15T02:22:28;97994.77;;;1.06;94.94
35507;BME280;36461;52.018;21.036;2024-01-15T02:24:56;97995.23;;;1.08;94.46
35507;BME280;36461;52.018;21.036;2024-01-15T02:27:24;97993.54;;;1.07;94.64
35507;BME280;36461;52.018;21.036;2024-01-15T02:29:53;97983.65;;;1.02;94.13
35507;BME280;36461;52.018;21.036;2024-01-15T02:32:21;97982.50;;;1.01;94.43
35507;BME280;36461;52.018;21.036;2024-01-15T02:34:50;97979.11;;;1.00;94.78
35507;BME280;36461;52.018;21.036;2024-01-15T02:37:18;97969.95;;;1.05;94.81
35507;BME280;36461;52.018;21.036;2024-01-15T02:39:46;97962.58;;;1.06;94.34
35507;BME280;36461;52.018;21.036;2024-01-15T02:42:14;97965.59;;;1.08;94.24
35507;BME280;36461;52.018;21.036;2024-01-15T02:44:42;97962.60;;;1.11;93.97
35507;BME280;36461;52.018;21.036;2024-01-15T02:47:11;97960.70;;;1.11;94.03
35507;BME280;36461;52.018;21.036;2024-01-15T02:49:39;97956.09;;;1.12;93.96
35507;BME280;36461;52.018;21.036;2024-01-15T02:52:07;97953.16;;;1.13;93.76
35507;BME280;36461;52.018;21.036;2024-01-15T02:54:35;97949.68;;;1.10;94.14
35507;BME280;36461;52.018;21.036;2024-01-15T02:57:04;97943.65;;;1.07;93.77
35507;BME280;36461;52.018;21.036;2024-01-15T02:59:32;97940.92;;;1.06;93.70
35507;BME280;36461;52.018;21.036;2024-01-15T03:02:00;97937.55;;;1.06;93.62
35507;BME280;36461;52.018;21.036;2024-01-15T03:04:28;97934.73;;;1.08;93.99
35507;BME280;36461;52.018;21.036;2024-01-15T03:06:57;97929.89;;;1.11;93.59
35507;BME280;36461;52.018;21.036;2024-01-15T03:09:25;97914.25;;;1.10;93.17
35507;BME280;36461;52.018;21.036;2024-01-15T03:11:53;97916.90;;;1.12;93.43
35507;BME280;36461;52.018;21.036;2024-01-15T03:14:21;97917.55;;;1.13;93.62
35507;BME280;36461;52.018;21.036;2024-01-15T03:16:53;97913.20;;;1.11;94.44
35507;BME280;36461;52.018;21.036;2024-01-15T03:19:21;97907.55;;;1.11;94.61
35507;BME280;36461;52.018;21.036;2024-01-15T03:21:50;97902.42;;;1.12;94.74
35507;BME280;36461;52.018;21.036;2024-01-15T03:24:18;97900.05;;;1.12;94.91
35507;BME280;36461;52.018;21.036;2024-01-15T03:26:46;97896.10;;;1.08;94.72
35507;BME280;36461;52.018;21.036;2024-01-15T03:29:14;97895.04;;;1.09;95.34
35507;BME280;36461;52.018;21.036;2024-01-15T03:31:43;97890.95;;;1.14;95.63
35507;BME280;36461;52.018;21.036;2024-01-15T03:34:11;97889.31;;;1.12;95.50
35507;BME280;36461;52.018;21.036;2024-01-15T03:36:40;97884.82;;;1.09;95.07
35507;BME280;36461;52.018;21.036;2024-01-15T03:39:08;97883.16;;;1.03;95.17
35507;BME280;36461;52.018;21.036;2024-01-15T03:41:37;97881.08;;;0.98;95.56
35507;BME280;36461;52.018;21.036;2024-01-15T03:44:05;97877.21;;;0.97;95.36
35507;BME280;36461;52.018;21.036;2024-01-15T03:46:33;97875.71;;;0.91;95.81
35507;BME280;36461;52.018;21.036;2024-01-15T03:49:01;97874.20;;;0.90;96.66
35507;BME280;36461;52.018;21.036;2024-01-15T03:51:30;97870.69;;;0.93;97.37
35507;BME280;36461;52.018;21.036;2024-01-15T03:53:58;97870.35;;;0.94;97.41
35507;BME280;36461;52.018;21.036;2024-01-15T03:56:27;97870.76;;;0.92;97.76
35507;BME280;36461;52.018;21.036;2024-01-15T03:58:55;97861.09;;;0.91;98.16
35507;BME280;36461;52.018;21.036;2024-01-15T04:01:23;97854.91;;;0.87;98.29
35507;BME280;36461;52.018;21.036;2024-01-15T04:03:51;97852.13;;;0.83;97.73
35507;BME280;36461;52.018;21.036;2024-01-15T04:06:19;97854.23;;;0.81;97.31
35507;BME280;36461;52.018;21.036;2024-01-15T04:08:48;97854.77;;;0.80;96.67
35507;BME280;36461;52.018;21.036;2024-01-15T04:11:16;97847.21;;;0.83;96.52
35507;BME280;36461;52.018;21.036;2024-01-15T04:13:44;97837.76;;;0.85;96.12
35507;BME280;36461;52.018;21.036;2024-01-15T04:16:12;97831.15;;;0.89;96.18
35507;BME280;36461;52.018;21.036;2024-01-15T04:18:40;97824.73;;;0.93;95.93
35507;BME280;36461;52.018;21.036;2024-01-15T04:21:08;97823.75;;;0.92;95.56
35507;BME280;36461;52.018;21.036;2024-01-15T04:23:37;97816.76;;;0.87;95.49
35507;BME280;36461;52.018;21.036;2024-01-15T04:26:05;97811.38;;;0.85;95.34
35507;BME280;36461;52.018;21.036;2024-01-15T04:28:33;97806.27;;;0.81;95.04
35507;BME280;36461;52.018;21.036;2024-01-15T04:31:01;97806.65;;;0.79;95.13
35507;BME280;36461;52.018;21.036;2024-01-15T04:33:29;97805.36;;;0.81;95.14
35507;BME280;36461;52.018;21.036;2024-01-15T04:36:01;97811.27;;;0.83;94.89
35507;BME280;36461;52.018;21.036;2024-01-15T04:38:30;97805.20;;;0.87;94.68
35507;BME280;36461;52.018;21.036;2024-01-15T04:40:58;97797.89;;;0.86;94.57
35507;BME280;36461;52.018;21.036;2024-01-15T04:43:26;97794.98;;;0.87;94.57
35507;BME280;36461;52.018;21.036;2024-01-15T04:45:54;97783.55;;;0.87;94.74
35507;BME280;36461;52.018;21.036;2024-01-15T04:48:23;97790.23;;;0.86;94.61
35507;BME280;36461;52.018;21.036;2024-01-15T04:50:51;97786.28;;;0.88;94.41
35507;BME280;36461;52.018;21.036;2024-01-15T04:53:19;97785.39;;;0.89;94.32
35507;BME280;36461;52.018;21.036;2024-01-15T04:55:48;97777.80;;;0.91;94.18
35507;BME280;36461;52.018;21.036;2024-01-15T04:58:16;97776.05;;;0.92;94.24
35507;BME280;36461;52.018;21.036;2024-01-15T05:00:44;97778.08;;;0.93;94.27
35507;BME280;36461;52.018;21.036;2024-01-15T05:03:12;97772.81;;;0.92;94.26
35507;BME280;36461;52.018;21.036;2024-01-15T05:05:41;97768.35;;;0.89;93.90
35507;BME280;36461;52.018;21.036;2024-01-15T05:08:09;97765.98;;;0.88;93.84
35507;BME280;36461;52.018;21.036;2024-01-15T05:10:37;97762.15;;;0.86;93.76
35507;BME280;36461;52.018;21.036;2024-01-15T05:13:05;97762.96;;;0.87;94.37
35507;BME280;36461;52.018;21.036;2024-01-15T05:15:33;97761.46;;;0.91;94.48
35507;BME280;36461;52.018;21.036;2024-01-15T05:18:02;97760.45;;;0.90;94.26
35507;BME280;36461;52.018;21.036;2024-01-15T05:20:30;97763.23;;;0.89;94.03
35507;BME280;36461;52.018;21.036;2024-01-15T05:22:59;97764.95;;;0.83;93.81
35507;BME280;36461;52.018;21.036;2024-01-15T05:25:27;97762.57;;;0.83;93.95
35507;BME280;36461;52.018;21.036;2024-01-15T05:27:55;97764.35;;;0.86;93.80
35507;BME280;36461;52.018;21.036;2024-01-15T05:30:24;97764.45;;;0.89;93.99
35507;BME280;36461;52.018;21.036;2024-01-15T05:32:53;97764.87;;;0.91;93.74
35507;BME280;36461;52.018;21.036;2024-01-15T05:35:21;97765.20;;;0.91;93.48
35507;BME280;36461;52.018;21.036;2024-01-15T05:37:49;97761.64;;;0.91;93.43
35507;BME280;36461;52.018;21.036;2024-01-15T05:40:18;97760.75;;;0.91;93.21
35507;BME280;36461;52.018;21.036;2024-01-15T05:42:46;97766.41;;;0.90;93.43
35507;BME280;36461;52.018;21.036;2024-01-15T05:45:14;97757.82;;;0.88;92.91
35507;BME280;36461;52.018;21.036;2024-01-15T05:47:42;97759.26;;;0.90;93.00
35507;BME280;36461;52.018;21.036;2024-01-15T05:50:12;97760.98;;;0.95;93.04
35507;BME280;36461;52.018;21.036;2024-01-15T05:52:40;97764.17;;;0.96;92.97
35507;BME280;36461;52.018;21.036;2024-01-15T05:55:08;97763.17;;;0.96;92.96
35507;BME280;36461;52.018;21.036;2024-01-15T05:57:37;97760.04;;;0.97;92.70
35507;BME280;36461;52.018;21.036;2024-01-15T06:00:06;97758.34;;;0.97;92.65
35507;BME280;36461;52.018;21.036;2024-01-15T06:02:37;97757.30;;;0.97;92.59
35507;BME280;36461;52.018;21.036;2024-01-15T06:05:06;97757.91;;;0.95;92.58
35507;BME280;36461;52.018;21.036;2024-01-15T06:07:35;97755.67;;;0.96;92.47
35507;BME280;36461;52.018;21.036;2024-01-15T06:10:06;97757.02;;;0.96;92.50
35507;BME280;36461;52.018;21.036;2024-01-15T06:12:35;97754.46;;;0.96;92.27
35507;BME280;36461;52.018;21.036;2024-01-15T06:15:04;97752.84;;;0.99;92.42
35507;BME280;36461;52.018;21.036;2024-01-15T06:17:32;97749.90;;;1.00;92.48
35507;BME280;36461;52.018;21.036;2024-01-15T06:20:01;97747.55;;;0.99;92.22
35507;BME280;36461;52.018;21.036;2024-01-15T06:22:29;97741.03;;;0.95;92.04
35507;BME280;36461;52.018;21.036;2024-01-15T06:24:57;97737.35;;;0.94;92.41
35507;BME280;36461;52.018;21.036;2024-01-15T06:27:25;97737.98;;;0.95;92.15
35507;BME280;36461;52.018;21.036;2024-01-15T06:29:53;97731.13;;;0.96;92.39
35507;BME280;36461;52.018;21.036;2024-01-15T06:32:23;97730.48;;;1.00;92.14
35507;BME280;36461;52.018;21.036;2024-01-15T06:34:51;97726.30;;;1.03;91.85
35507;BME280;36461;52.018;21.036;2024-01-15T06:37:20;97717.30;;;1.02;91.74
35507;BME280;36461;52.018;21.036;2024-01-15T06:39:48;97722.16;;;0.99;91.85
35507;BME280;36461;52.018;21.036;2024-01-15T06:42:17;97720.48;;;0.99;91.61
35507;BME280;36461;52.018;21.036;2024-01-15T06:44:45;97720.91;;;0.96;91.42
35507;BME280;36461;52.018;21.036;2024-01-15T06:47:13;97713.86;;;0.98;91.49
35507;BME280;36461;52.018;21.036;2024-01-15T06:49:43;97713.84;;;1.03;91.44
35507;BME280;36461;52.018;21.036;2024-01-15T06:52:11;97711.76;;;1.09;91.43
35507;BME280;36461;52.018;21.036;2024-01-15T06:54:40;97707.98;;;1.10;91.16
35507;BME280;36461;52.018;21.036;2024-01-15T06:57:08;97710.64;;;1.11;90.97
35507;BME280;36461;52.018;21.036;2024-01-15T06:59:36;97708.31;;;1.10;90.83
35507;BME280;36461;52.018;21.036;2024-01-15T07:02:05;97716.41;;;1.12;90.89
35507;BME280;36461;52.018;21.036;2024-01-15T07:04:33;97710.30;;;1.11;91.01
35507;BME280;36461;52.018;21.036;2024-01-15T07:07:01;97706.17;;;1.08;90.49
35507;BME280;36461;52.018;21.036;2024-01-15T07:09:30;97712.62;;;1.09;90.44
35507;BME280;36461;52.018;21.036;2024-01-15T07:11:58;97711.09;;;1.14;90.41
35507;BME280;36461;52.018;21.036;2024-01-15T07:14:27;97714.30;;;1.19;90.47
35507;BME280;36461;52.018;21.036;2024-01-15T07:16:55;97715.36;;;1.22;90.37
35507;BME280;36461;52.018;21.036;2024-01-15T07:19:24;97713.73;;;1.25;90.42
35507;BME280;36461;52.018;21.036;2024-01-15T07:21:53;97718.73;;;1.24;90.12
35507;BME280;36461;52.018;21.036;2024-01-15T07:24:24;97717.57;;;1.22;90.57
35507;BME280;36461;52.018;21.036;2024-01-15T07:26:52;97715.86;;;1.23;91.23
35507;BME280;36461;52.018;21.036;2024-01-15T07:29:20;97716.45;;;1.25;91.46
35507;BME280;36461;52.018;21.036;2024-01-15T07:31:51;97714.99;;;1.28;91.56
35507;BME280;36461;52.018;21.036;2024-01-15T07:34:20;97714.31;;;1.32;91.54
35507;BME280;36461;52.018;21.036;2024-01-15T07:36:50;97714.23;;;1.39;91.05
35507;BME280;36461;52.018;21.036;2024-01-15T07:39:18;97715.91;;;1.40;90.90
35507;BME280;36461;52.018;21.036;2024-01-15T07:41:47;97711.12;;;1.35;90.49
35507;BME280;36461;52.018;21.036;2024-01-15T07:44:15;97709.46;;;1.30;90.11
35507;BME280;36461;52.018;21.036;2024-01-15T07:46:46;97706.95;;;1.24;90.34
35507;BME280;36461;52.018;21.036;2024-01-15T07:49:15;97711.94;;;1.23;90.78
35507;BME280;36461;52.018;21.036;2024-01-15T07:51:44;97714.22;;;1.21;90.83
35507;BME280;36461;52.018;21.036;2024-01-15T07:54:13;97724.61;;;1.21;90.81
35507;BME280;36461;52.018;21.036;2024-01-15T07:56:59;97725.23;;;1.32;90.86
35507;BME280;36461;52.018;21.036;2024-01-15T07:59:27;97726.40;;;1.46;90.34
35507;BME280;36461;52.018;21.036;2024-01-15T08:01:55;97728.69;;;1.58;90.66
35507;BME280;36461;52.018;21.036;2024-01-15T08:04:23;97722.05;;;1.66;90.45
35507;BME280;36461;52.018;21.036;2024-01-15T08:06:52;97717.64;;;1.75;90.38
35507;BME280;36461;52.018;21.036;2024-01-15T08:09:20;97715.17;;;1.77;89.85
35507;BME280;36461;52.018;21.036;2024-01-15T08:11:48;97712.60;;;1.68;89.14
35507;BME280;36461;52.018;21.036;2024-01-15T08:14:19;97720.90;;;1.61;89.44
35507;BME280;36461;52.018;21.036;2024-01-15T08:16:47;97719.23;;;1.60;89.47
35507;BME280;36461;52.018;21.036;2024-01-15T08:19:15;97721.42;;;1.60;89.77
35507;BME280;36461;52.018;21.036;2024-01-15T08:21:43;97728.70;;;1.58;90.34
35507;BME280;36461;52.018;21.036;2024-01-15T08:24:12;97722.67;;;1.55;90.60
35507;BME280;36461;52.018;21.036;2024-01-15T08:26:40;97724.70;;;1.51;90.98
35507;BME280;36461;52.018;21.036;2024-01-15T08:29:09;97719.89;;;1.47;91.27
35507;BME280;36461;52.018;21.036;2024-01-15T08:31:37;97722.03;;;1.44;91.19
35507;BME280;36461;52.018;21.036;2024-01-15T08:34:05;97719.64;;;1.40;91.13
35507;BME280;36461;52.018;21.036;2024-01-15T08:36:34;97720.48;;;1.41;91.41
35507;BME280;36461;52.018;21.036;2024-01-15T08:39:04;97725.30;;;1.43;91.67
35507;BME280;36461;52.018;21.036;2024-01-15T08:41:33;97723.60;;;1.43;92.33
35507;BME280;36461;52.018;21.036;2024-01-15T08:44:01;97717.38;;;1.41;92.99
35507;BME280;36461;52.018;21.036;2024-01-15T08:46:31;97716.14;;;1.38;93.68
35507;BME280;36461;52.018;21.036;2024-01-15T08:48:59;97719.23;;;1.24;95.23
35507;BME280;36461;52.018;21.036;2024-01-15T08:51:27;97718.21;;;1.19;97.15
35507;BME280;36461;52.018;21.036;2024-01-15T08:53:56;97718.37;;;1.19;98.04
35507;BME280;36461;52.018;21.036;2024-01-15T08:56:25;97723.77;;;1.21;98.36
35507;BME280;36461;52.018;21.036;2024-01-15T08:58:55;97725.78;;;1.16;97.81
35507;BME280;36461;52.018;21.036;2024-01-15T09:01:23;97725.05;;;1.23;98.00
35507;BME280;36461;52.018;21.036;2024-01-15T09:03:52;97729.33;;;1.36;97.88
35507;BME280;36461;52.018;21.036;2024-01-15T09:06:20;97730.41;;;1.44;97.69
35507;BME280;36461;52.018;21.036;2024-01-15T09:08:49;97740.20;;;1.50;97.26
35507;BME280;36461;52.018;21.036;2024-01-15T09:11:17;97742.02;;;1.52;95.57
35507;BME280;36461;52.018;21.036;2024-01-15T09:13:45;97736.49;;;1.54;94.55
35507;BME280;36461;52.018;21.036;2024-01-15T09:16:14;97729.88;;;1.58;93.76
35507;BME280;36461;52.018;21.036;2024-01-15T09:18:42;97725.77;;;1.63;92.98
35507;BME280;36461;52.018;21.036;2024-01-15T09:21:10;97733.46;;;1.67;92.44
35507;BME280;36461;52.018;21.036;2024-01-15T09:23:39;97726.06;;;1.59;91.39
35507;BME280;36461;52.018;21.036;2024-01-15T09:26:08;97727.45;;;1.54;91.07
35507;BME280;36461;52.018;21.036;2024-01-15T09:28:37;97723.45;;;1.52;90.85
35507;BME280;36461;52.018;21.036;2024-01-15T09:31:05;97725.13;;;1.48;90.41
35507;BME280;36461;52.018;21.036;2024-01-15T09:33:34;97725.99;;;1.47;89.20
35507;BME280;36461;52.018;21.036;2024-01-15T09:36:03;97724.75;;;1.62;88.97
35507;BME280;36461;52.018;21.036;2024-01-15T09:38:31;97718.31;;;1.79;88.84
35507;BME280;36461;52.018;21.036;2024-01-15T09:40:59;97716.64;;;1.95;88.39
35507;BME280;36461;52.018;21.036;2024-01-15T09:43:28;97712.75;;;2.08;87.79
35507;BME280;36461;52.018;21.036;2024-01-15T09:45:57;97716.14;;;2.20;87.11
35507;BME280;36461;52.018;21.036;2024-01-15T09:48:25;97714.05;;;2.26;85.55
35507;BME280;36461;52.018;21.036;2024-01-15T09:50:54;97715.52;;;2.31;85.09
35507;BME280;36461;52.018;21.036;2024-01-15T09:53:23;97713.39;;;2.37;84.97
35507;BME280;36461;52.018;21.036;2024-01-15T09:55:52;97709.81;;;2.49;84.29
35507;BME280;36461;52.018;21.036;2024-01-15T09:58:21;97705.89;;;2.54;83.09
35507;BME280;36461;52.018;21.036;2024-01-15T10:00:49;97701.74;;;2.59;83.00
35507;BME280;36461;52.018;21.036;2024-01-15T10:03:19;97699.09;;;2.65;82.05
35507;BME280;36461;52.018;21.036;2024-01-15T10:05:48;97700.20;;;2.71;82.14
35507;BME280;36461;52.018;21.036;2024-01-15T10:08:17;97695.40;;;2.75;81.67
35507;BME280;36461;52.018;21.036;2024-01-15T10:10:45;97693.88;;;2.79;81.40
35507;BME280;36461;52.018;21.036;2024-01-15T10:13:14;97696.06;;;2.83;81.53
35507;BME280;36461;52.018;21.036;2024-01-15T10:15:46;97702.67;;;2.85;80.45
35507;BME280;36461;52.018;21.036;2024-01-15T10:18:17;97711.89;;;2.84;80.57
35507;BME280;36461;52.018;21.036;2024-01-15T10:20:47;97712.27;;;2.92;80.85
35507;BME280;36461;52.018;21.036;2024-01-15T10:23:15;97713.45;;;2.96;80.24
35507;BME280;36461;52.018;21.036;2024-01-15T10:25:44;97708.40;;;2.98;79.97
35507;BME280;36461;52.018;21.036;2024-01-15T10:28:13;97712.04;;;2.93;79.34
35507;BME280;36461;52.018;21.036;2024-01-15T10:30:41;97706.79;;;2.88;79.56
35507;BME280;36461;52.018;21.036;2024-01-15T10:33:09;97712.03;;;2.89;79.65
35507;BME280;36461;52.018;21.036;2024-01-15T10:35:38;97705.36;;;2.93;79.33
35507;BME280;36461;52.018;21.036;2024-01-15T10:38:06;97714.97;;;2.92;79.64
35507;BME280;36461;52.018;21.036;2024-01-15T10:40:35;97715.40;;;2.91;79.47
35507;BME280;36461;52.018;21.036;2024-01-15T10:43:03;97720.10;;;2.92;80.11
35507;BME280;36461;52.018;21.036;2024-01-15T10:45:32;97715.71;;;2.91;79.45
35507;BME280;36461;52.018;21.036;2024-01-15T10:48:01;97713.42;;;2.81;78.91
35507;BME280;36461;52.018;21.036;2024-01-15T10:50:31;97723.69;;;2.76;79.59
35507;BME280;36461;52.018;21.036;2024-01-15T10:53:00;97719.76;;;2.77;79.45
35507;BME280;36461;52.018;21.036;2024-01-15T10:55:31;97723.52;;;2.73;79.04
35507;BME280;36461;52.018;21.036;2024-01-15T10:58:00;97718.36;;;2.73;79.13
35507;BME280;36461;52.018;21.036;2024-01-15T11:00:31;97718.81;;;2.75;79.49
35507;BME280;36461;52.018;21.036;2024-01-15T11:03:01;97717.59;;;2.75;79.03
35507;BME280;36461;52.018;21.036;2024-01-15T11:05:33;97716.36;;;2.84;79.60
35507;BME280;36461;52.018;21.036;2024-01-15T11:08:02;97714.98;;;2.96;79.13
35507;BME280;36461;52.018;21.036;2024-01-15T11:10:44;97722.14;;;2.96;79.22
35507;BME280;36461;52.018;21.036;2024-01-15T11:16:09;97714.48;;;3.03;78.64
35507;BME280;36461;52.018;21.036;2024-01-15T11:18:42;97707.19;;;3.22;78.43
35507;BME280;36461;52.018;21.036;2024-01-15T11:23:50;97710.80;;;3.47;78.38
35507;BME280;36461;52.018;21.036;2024-01-15T11:29:32;97706.44;;;3.52;78.15
35507;BME280;36461;52.018;21.036;2024-01-15T11:32:03;97700.77;;;3.46;77.23
35507;BME280;36461;52.018;21.036;2024-01-15T11:34:56;97701.83;;;3.45;77.36
35507;BME280;36461;52.018;21.036;2024-01-15T11:40:36;97697.73;;;3.52;76.95
35507;BME280;36461;52.018;21.036;2024-01-15T11:43:06;97685.29;;;3.51;76.16
35507;BME280;36461;52.018;21.036;2024-01-15T11:45:39;97689.77;;;3.51;76.39
35507;BME280;36461;52.018;21.036;2024-01-15T11:50:46;97684.98;;;3.43;76.09
35507;BME280;36461;52.018;21.036;2024-01-15T11:53:27;97679.45;;;3.45;77.16
35507;BME280;36461;52.018;21.036;2024-01-15T11:56:02;97679.32;;;3.59;76.45
35507;BME280;36461;52.018;21.036;2024-01-15T11:58:31;97684.91;;;3.42;75.75
35507;BME280;36461;52.018;21.036;2024-01-15T12:00:59;97681.89;;;3.25;75.64
35507;BME280;36461;52.018;21.036;2024-01-15T12:03:47;97685.69;;;3.17;77.18
35507;BME280;36461;52.018;21.036;2024-01-15T12:06:16;97683.34;;;3.05;77.89
35507;BME280;36461;52.018;21.036;2024-01-15T12:08:44;97686.15;;;2.95;78.51
35507;BME280;36461;52.018;21.036;2024-01-15T12:11:13;97689.58;;;2.91;78.66
35507;BME280;36461;52.018;21.036;2024-01-15T12:13:45;97685.83;;;2.87;78.91
35507;BME280;36461;52.018;21.036;2024-01-15T12:16:13;97688.83;;;2.85;78.59
35507;BME280;36461;52.018;21.036;2024-01-15T12:18:41;97689.25;;;2.75;78.90
35507;BME280;36461;52.018;21.036;2024-01-15T12:21:09;97685.69;;;2.71;79.22
35507;BME280;36461;52.018;21.036;2024-01-15T12:23:39;97687.48;;;2.65;79.50
35507;BME280;36461;52.018;21.036;2024-01-15T12:26:07;97681.42;;;2.62;79.77
35507;BME280;36461;52.018;21.036;2024-01-15T12:28:36;97690.67;;;2.62;79.77
35507;BME280;36461;52.018;21.036;2024-01-15T12:31:05;97687.72;;;2.55;80.07
35507;BME280;36461;52.018;21.036;2024-01-15T12:33:33;97683.20;;;2.53;80.02
35507;BME280;36461;52.018;21.036;2024-01-15T12:36:02;97683.69;;;2.58;80.10
35507;BME280;36461;52.018;21.036;2024-01-15T12:38:31;97685.39;;;2.62;79.79
35507;BME280;36461;52.018;21.036;2024-01-15T12:41:00;97685.16;;;2.59;79.16
35507;BME280;36461;52.018;21.036;2024-01-15T12:43:28;97677.65;;;2.56;79.67
35507;BME280;36461;52.018;21.036;2024-01-15T12:45:57;97679.66;;;2.52;79.73
35507;BME280;36461;52.018;21.036;2024-01-15T12:48:25;97678.91;;;2.45;79.28
35507;BME280;36461;52.018;21.036;2024-01-15T12:50:53;97680.96;;;2.34;78.81
35507;BME280;36461;52.018;21.036;2024-01-15T12:53:21;97684.84;;;2.27;79.10
35507;BME280;36461;52.018;21.036;2024-01-15T12:55:49;97687.73;;;2.27;79.50
35507;BME280;36461;52.018;21.036;2024-01-15T12:58:19;97686.22;;;2.30;79.14
35507;BME280;36461;52.018;21.036;2024-01-15T13:00:48;97682.60;;;2.27;78.96
35507;BME280;36461;52.018;21.036;2024-01-15T13:03:17;97683.36;;;2.17;79.89
35507;BME280;36461;52.018;21.036;2024-01-15T13:05:45;97691.92;;;2.03;81.34
35507;BME280;36461;52.018;21.036;2024-01-15T13:08:14;97696.91;;;1.81;84.21
35507;BME280;36461;52.018;21.036;2024-01-15T13:10:42;97690.73;;;1.61;84.85
35507;BME280;36461;52.018;21.036;2024-01-15T13:13:11;97692.23;;;1.43;86.21
35507;BME280;36461;52.018;21.036;2024-01-15T13:15:40;97695.13;;;1.30;88.84
35507;BME280;36461;52.018;21.036;2024-01-15T13:18:09;97702.05;;;1.23;88.67
35507;BME280;36461;52.018;21.036;2024-01-15T13:20:38;97690.85;;;1.17;89.02
35507;BME280;36461;52.018;21.036;2024-01-15T13:23:06;97692.83;;;1.10;88.82